Terminal Aerodrome Forecast
Issued by NWS

Home | Current Version | Previous Version | Text Only | Print | Product List | Glossary On
Versions: 1 2 3 4 5 6 7 8 9 10 11 12 13 14 15 16 17 18 19 20 21 22 23 24
000
FTUS45 KPSR 240257 AAA
TAFPHX
TAF AMD
KPHX 240257Z 2403/2506 33014G22KT P6SM SCT070 BKN100
     FM240400 29012KT P6SM SCT070
     FM240700 28005KT P6SM FEW100
      TEMPO 2416/2420 VRB03KT
     FM250500 11005KT P6SM SKC=

USA.gov is the U.S. government's official web portal to all federal, state and local government web resources and services.